Airport View

Enter AWOS ICAO identifier for current METAR.

ex. KFNL

KAPA 080553Z 25007KT 10SM FEW120 21/01 A3009 RMK AO2 SLP098 T02060006 10339 20206 51008

8 Aug 2020 06:26

Frequency: 120.300

Phone: 720-873-2799

Other Area AWOS: KBKF - KFTG - KDEN - KMNH

TAF KAPA 080555Z 0806/0906 21006KT P6SM FEW150 FM081600 34009KT P6SM FEW150 FM082100 10009KT P6SM SCT120 FM090200 19006KT P6SM SCT120